Syosyun — JD2406 — position and weather

sailwx.info

Track history (hours):
 
Tides and Currents Weather Stations Pressure Air Temp Water Temp Dewpoint Dewpoint Depression Visibility Wind Speed Wind Dir Waves Ship Positions

Syosyun

Last reported at 2016-Dec-04 16:09 UTC. Time now 2016-Dec-10 10:53 UTC.
Position N 35°08' E 139°42'.

Length 74 m; draft 3.6 m.

Type: Cargo ship. MMSI: 431000201.

Date/timePositionNaut miles runAvg speedWind from/ knotsBaromVisibWave heightAir tempDewpointWater temp
2016-Dec-04 16:09N 35°08' E 139°42'711.4
2016-Dec-04 15:32N 35°14' E 139°46'1010.6
2016-Dec-04 14:34N 35°25' E 139°44'  
2016-Dec-01 14:19N 35°21' E 139°54'0 0.0
2016-Nov-30 21:32N 35°21' E 139°54'0 0.0
2016-Nov-30 20:27N 35°21' E 139°54'0 0.0
2016-Nov-30 19:31N 35°21' E 139°54'0 0.0
2016-Nov-30 18:32N 35°21' E 139°54'0 0.0
2016-Nov-30 17:33N 35°21' E 139°54'0 0.0
2016-Nov-30 16:28N 35°21' E 139°54'0 0.0
2016-Nov-30 15:31N 35°21' E 139°54'0 0.0
2016-Nov-30 14:32N 35°21' E 139°54'1 0.3
2016-Nov-30 12:10N 35°22' E 139°53'0 0.0
2016-Nov-30 10:20N 35°22' E 139°53'0 0.0
2016-Nov-30 09:31N 35°22' E 139°53'6 6.4
2016-Nov-30 08:33N 35°28' E 139°50'1010.2
2016-Nov-30 07:33N 35°38' E 139°48'1 1.0
2016-Nov-30 06:29N 35°38' E 139°49'0 0.0
2016-Nov-30 05:32N 35°38' E 139°49'0 0.0
2016-Nov-30 04:29N 35°38' E 139°49'0 0.0
2016-Nov-30 03:32N 35°38' E 139°49'0 0.0
2016-Nov-30 02:33N 35°38' E 139°49'0 0.0
2016-Nov-30 01:33N 35°38' E 139°49'0 0.0
2016-Nov-30 00:33N 35°38' E 139°49'2 2.2
2016-Nov-29 23:33N 35°36' E 139°50'9 9.4
2016-Nov-29 22:33N 35°27' E 139°49'10 9.7
2016-Nov-29 21:33N 35°18' E 139°45'  
Track history (hours):
 
Tides and Currents Weather Stations Pressure Air Temp Water Temp Dewpoint Dewpoint Depression Visibility Wind Speed Wind Dir Waves Ship Positions

Syosyun

Last reported at 2016-Dec-04 16:09 UTC. Time now 2016-Dec-10 10:53 UTC.
Position N 35°08' E 139°42'.

Length 74 m; draft 3.6 m.

Type: Cargo ship. MMSI: 431000201.

Date/timePositionNaut miles runAvg speedWind from/ knotsBaromVisibWave heightAir tempDewpointWater temp
2016-Dec-04 16:09N 35°08' E 139°42'711.4
2016-Dec-04 15:32N 35°14' E 139°46'1010.6
2016-Dec-04 14:34N 35°25' E 139°44'  
2016-Dec-01 14:19N 35°21' E 139°54'0 0.0
2016-Nov-30 21:32N 35°21' E 139°54'0 0.0
2016-Nov-30 20:27N 35°21' E 139°54'0 0.0
2016-Nov-30 19:31N 35°21' E 139°54'0 0.0
2016-Nov-30 18:32N 35°21' E 139°54'0 0.0
2016-Nov-30 17:33N 35°21' E 139°54'0 0.0
2016-Nov-30 16:28N 35°21' E 139°54'0 0.0
2016-Nov-30 15:31N 35°21' E 139°54'0 0.0
2016-Nov-30 14:32N 35°21' E 139°54'1 0.3
2016-Nov-30 12:10N 35°22' E 139°53'0 0.0
2016-Nov-30 10:20N 35°22' E 139°53'0 0.0
2016-Nov-30 09:31N 35°22' E 139°53'6 6.4
2016-Nov-30 08:33N 35°28' E 139°50'1010.2
2016-Nov-30 07:33N 35°38' E 139°48'1 1.0
2016-Nov-30 06:29N 35°38' E 139°49'0 0.0
2016-Nov-30 05:32N 35°38' E 139°49'0 0.0
2016-Nov-30 04:29N 35°38' E 139°49'0 0.0
2016-Nov-30 03:32N 35°38' E 139°49'0 0.0
2016-Nov-30 02:33N 35°38' E 139°49'0 0.0
2016-Nov-30 01:33N 35°38' E 139°49'0 0.0
2016-Nov-30 00:33N 35°38' E 139°49'2 2.2
2016-Nov-29 23:33N 35°36' E 139°50'9 9.4
2016-Nov-29 22:33N 35°27' E 139°49'10 9.7
2016-Nov-29 21:33N 35°18' E 139°45'  

Dump ship's entire track history